createdAt,value
2023-01-29T00:00:49.116Z,96.25
2023-01-29T00:03:52.516Z,95.55
2023-01-29T00:06:54.374Z,96.09
2023-01-29T00:09:56.078Z,95.62
2023-01-29T00:12:57.985Z,95.85
2023-01-29T00:16:00.143Z,95.71
2023-01-29T00:19:03.025Z,95.58
2023-01-29T00:22:04.812Z,94.97
2023-01-29T00:25:07.205Z,95.55
2023-01-29T00:28:09.542Z,94.78
2023-01-29T00:31:21.134Z,95.05
2023-01-29T00:34:23.604Z,95.56
2023-01-29T00:37:25.848Z,94.89
2023-01-29T00:40:27.667Z,94.79
2023-01-29T00:43:49.111Z,95.47
2023-01-29T00:46:51.414Z,95.34
2023-01-29T00:49:53.970Z,95.48
2023-01-29T00:52:55.928Z,95.00
2023-01-29T00:55:57.694Z,95.39
2023-01-29T00:58:59.720Z,95.30
2023-01-29T01:02:20.943Z,95.29
2023-01-29T01:05:24.517Z,94.86
2023-01-29T01:08:44.891Z,94.70
2023-01-29T01:11:47.253Z,94.72
2023-01-29T01:14:49.665Z,94.82
2023-01-29T01:18:02.516Z,94.53
2023-01-29T01:21:05.134Z,94.72
2023-01-29T01:24:07.460Z,94.88
2023-01-29T01:27:09.646Z,94.71
2023-01-29T01:30:16.962Z,94.42
2023-01-29T01:33:19.027Z,95.09
2023-01-29T01:36:21.280Z,94.32
2023-01-29T01:39:24.171Z,94.79
2023-01-29T01:42:30.622Z,93.87
2023-01-29T01:45:36.206Z,94.15
2023-01-29T01:48:38.765Z,94.37
2023-01-29T01:51:45.467Z,94.32
2023-01-29T01:54:48.952Z,94.96
2023-01-29T01:57:55.118Z,94.24
2023-01-29T02:00:57.341Z,94.52
2023-01-29T02:04:26.610Z,94.32
2023-01-29T02:07:47.310Z,94.71
2023-01-29T02:10:50.306Z,94.00
2023-01-29T02:13:53.795Z,94.17
2023-01-29T02:17:01.701Z,93.83
2023-01-29T02:20:12.472Z,94.25
2023-01-29T02:23:14.179Z,94.13
2023-01-29T02:26:23.261Z,94.21
2023-01-29T02:29:34.715Z,94.44
2023-01-29T02:32:54.540Z,94.58
2023-01-29T02:36:25.691Z,94.48
2023-01-29T02:39:48.787Z,94.67
2023-01-29T02:43:17.059Z,95.09
2023-01-29T02:46:39.403Z,94.80
2023-01-29T02:49:47.709Z,94.97
2023-01-29T02:52:50.804Z,94.61
2023-01-29T02:56:10.261Z,94.85
2023-01-29T02:59:20.251Z,94.42
2023-01-29T03:02:31.975Z,94.52
2023-01-29T03:06:06.386Z,94.77
2023-01-29T03:09:16.930Z,94.98
2023-01-29T03:12:36.376Z,94.56
2023-01-29T03:15:47.014Z,94.66
2023-01-29T03:19:06.748Z,94.11
2023-01-29T03:22:11.555Z,94.46
2023-01-29T03:25:33.909Z,94.32
2023-01-29T03:28:55.243Z,94.56
2023-01-29T03:32:07.784Z,94.39
2023-01-29T03:35:21.641Z,94.38
2023-01-29T03:38:29.742Z,94.33
2023-01-29T03:41:40.527Z,94.08
2023-01-29T03:44:49.229Z,94.59
2023-01-29T03:48:11.035Z,93.65
2023-01-29T03:51:26.955Z,93.74
2023-01-29T03:54:38.409Z,94.08
2023-01-29T03:57:53.616Z,93.83
2023-01-29T04:01:03.455Z,94.04
2023-01-29T04:04:10.413Z,93.51
2023-01-29T04:07:24.571Z,92.81
2023-01-29T04:10:38.826Z,92.95
2023-01-29T04:13:42.127Z,93.12
2023-01-29T04:16:53.951Z,93.06
2023-01-29T04:20:17.446Z,92.96
2023-01-29T04:23:26.190Z,93.42
2023-01-29T04:26:52.453Z,93.34
2023-01-29T04:30:06.101Z,94.16
2023-01-29T04:33:19.594Z,94.38
2023-01-29T04:36:48.973Z,94.33
2023-01-29T04:40:04.373Z,94.14
2023-01-29T04:43:15.917Z,94.37
2023-01-29T04:46:25.352Z,94.60
2023-01-29T04:49:40.682Z,94.90
2023-01-29T04:52:54.391Z,94.37
2023-01-29T04:56:01.030Z,94.54
2023-01-29T04:59:08.058Z,94.55
2023-01-29T05:02:12.087Z,94.46
2023-01-29T05:05:18.133Z,94.85
2023-01-29T05:08:23.699Z,94.99
2023-01-29T05:11:26.566Z,95.47
2023-01-29T05:14:31.293Z,95.15
2023-01-29T05:17:33.483Z,95.39
2023-01-29T05:20:39.320Z,95.18
2023-01-29T05:23:53.591Z,95.62
2023-01-29T05:27:13.984Z,95.20
2023-01-29T05:30:16.290Z,95.79
2023-01-29T05:33:22.403Z,95.67
2023-01-29T05:36:26.948Z,95.17
2023-01-29T05:39:29.583Z,95.58
2023-01-29T05:42:32.767Z,95.40
2023-01-29T05:45:34.567Z,95.38
2023-01-29T05:48:36.254Z,95.44
2023-01-29T05:51:39.227Z,95.18
2023-01-29T05:54:41.488Z,94.98
2023-01-29T05:57:43.582Z,95.18
2023-01-29T06:00:45.733Z,95.00
2023-01-29T06:03:48.297Z,94.66
2023-01-29T06:06:50.588Z,95.05
2023-01-29T06:09:52.357Z,94.93
2023-01-29T06:12:54.031Z,94.57
2023-01-29T06:15:55.748Z,94.69
2023-01-29T06:18:57.535Z,94.46
2023-01-29T06:21:59.907Z,94.58
2023-01-29T06:25:02.203Z,94.82
2023-01-29T06:28:04.154Z,94.46
2023-01-29T06:31:24.036Z,95.27
2023-01-29T06:34:29.992Z,94.72
2023-01-29T06:37:32.244Z,94.47
2023-01-29T06:40:33.924Z,94.86
2023-01-29T06:43:35.700Z,94.71
2023-01-29T06:46:37.661Z,94.66
2023-01-29T06:49:39.525Z,94.77
2023-01-29T06:52:42.715Z,95.29
2023-01-29T06:55:51.636Z,95.67
2023-01-29T06:58:53.410Z,95.33
2023-01-29T07:01:55.220Z,95.90
2023-01-29T07:04:56.927Z,95.42
2023-01-29T07:07:58.793Z,95.43
2023-01-29T07:11:01.717Z,95.66
2023-01-29T07:14:04.260Z,94.96
2023-01-29T07:17:06.032Z,95.40
2023-01-29T07:20:10.336Z,95.58
2023-01-29T07:23:14.065Z,95.21
2023-01-29T07:26:16.154Z,95.49
2023-01-29T07:29:18.356Z,95.18
2023-01-29T07:32:20.040Z,95.28
2023-01-29T07:35:22.752Z,95.44
2023-01-29T07:38:24.488Z,95.42
2023-01-29T07:41:26.792Z,95.55
2023-01-29T07:44:28.745Z,95.45
2023-01-29T07:47:30.497Z,95.15
2023-01-29T07:50:34.928Z,94.67
2023-01-29T07:53:37.106Z,95.42
2023-01-29T07:56:39.980Z,95.41
2023-01-29T07:59:43.184Z,94.45
2023-01-29T08:02:44.860Z,94.59
2023-01-29T08:05:47.132Z,93.99
2023-01-29T08:08:49.812Z,94.03
2023-01-29T08:11:52.705Z,94.35
2023-01-29T08:14:54.472Z,94.06
2023-01-29T08:17:57.980Z,94.29
2023-01-29T08:21:01.912Z,94.75
2023-01-29T08:24:18.446Z,94.12
2023-01-29T08:27:20.876Z,94.06
2023-01-29T08:30:23.419Z,93.71
2023-01-29T08:33:38.268Z,93.91
2023-01-29T08:36:42.124Z,93.48
2023-01-29T08:39:44.408Z,93.45
2023-01-29T08:43:51.995Z,93.28
2023-01-29T09:24:12.073Z,95.61
2023-01-29T09:28:06.714Z,94.32
2023-01-29T09:35:42.329Z,94.54
2023-01-29T09:39:24.240Z,93.43
2023-01-29T09:43:23.529Z,94.03
2023-01-29T10:04:56.897Z,91.21
2023-01-29T10:08:39.393Z,91.43
2023-01-29T10:12:05.623Z,91.88
2023-01-29T10:15:40.760Z,89.53
2023-01-29T10:19:16.215Z,88.78
2023-01-29T10:23:34.830Z,90.27
2023-01-29T10:26:49.710Z,89.34
2023-01-29T10:30:09.152Z,89.03
2023-01-29T10:34:01.579Z,87.09
2023-01-29T10:38:06.385Z,87.28
2023-01-29T10:42:07.787Z,85.74
2023-01-29T10:46:01.854Z,86.36
2023-01-29T10:49:29.033Z,86.17
2023-01-29T10:52:51.753Z,87.57
2023-01-29T10:55:56.414Z,85.71
2023-01-29T10:59:05.552Z,85.76
2023-01-29T11:02:18.164Z,84.29
2023-01-29T11:06:18.767Z,84.22
2023-01-29T11:09:55.725Z,83.64
2023-01-29T11:12:59.359Z,83.62
2023-01-29T11:16:01.143Z,83.19
2023-01-29T11:19:03.029Z,83.77
2023-01-29T11:22:05.112Z,84.67
2023-01-29T11:25:12.651Z,85.34
2023-01-29T11:28:14.437Z,83.91
2023-01-29T11:31:22.738Z,84.04
2023-01-29T11:34:27.893Z,84.49
2023-01-29T11:37:55.748Z,83.91
2023-01-29T11:41:16.606Z,83.13
2023-01-29T11:44:43.965Z,83.17
2023-01-29T11:47:52.381Z,83.84
2023-01-29T11:51:08.269Z,83.99
2023-01-29T12:07:42.925Z,83.10
2023-01-29T12:10:44.763Z,81.17
2023-01-29T12:13:54.292Z,81.94
2023-01-29T12:17:18.559Z,82.15
2023-01-29T12:20:26.763Z,82.48
2023-01-29T12:23:36.629Z,82.05
2023-01-29T12:26:45.666Z,82.71
2023-01-29T12:30:22.606Z,81.20
2023-01-29T12:33:37.028Z,82.59
2023-01-29T12:36:47.036Z,82.03
2023-01-29T12:39:49.715Z,80.66
2023-01-29T12:42:57.828Z,81.79
2023-01-29T12:46:02.107Z,81.75
2023-01-29T12:49:09.811Z,81.38
2023-01-29T12:52:34.887Z,80.63
2023-01-29T12:55:47.947Z,81.29
2023-01-29T12:58:53.350Z,81.57
2023-01-29T13:02:30.182Z,82.03
2023-01-29T13:05:41.340Z,81.94
2023-01-29T13:08:53.739Z,81.39
2023-01-29T13:12:11.464Z,82.32
2023-01-29T13:15:13.086Z,81.22
2023-01-29T13:18:44.578Z,81.34
2023-01-29T13:21:47.325Z,80.91
2023-01-29T13:24:58.744Z,81.41
2023-01-29T13:28:05.749Z,80.10
2023-01-29T13:31:29.044Z,80.40
2023-01-29T13:34:44.375Z,80.32
2023-01-29T13:37:53.253Z,81.28
2023-01-29T13:41:00.781Z,82.11
2023-01-29T13:44:05.275Z,82.77
2023-01-29T13:47:12.261Z,82.11
2023-01-29T13:50:38.733Z,82.18
2023-01-29T13:53:41.874Z,82.02
2023-01-29T13:56:49.847Z,82.19
2023-01-29T13:59:54.638Z,82.58
2023-01-29T14:03:05.358Z,81.80
2023-01-29T14:06:06.990Z,81.30
2023-01-29T14:09:53.346Z,81.16
2023-01-29T14:13:15.404Z,82.58
2023-01-29T14:16:16.942Z,82.26
2023-01-29T14:19:19.964Z,82.61
2023-01-29T14:22:27.715Z,83.04
2023-01-29T14:25:35.552Z,82.63
2023-01-29T14:28:37.195Z,82.61
2023-01-29T14:31:43.286Z,82.55
2023-01-29T14:34:49.574Z,82.54
2023-01-29T14:37:54.626Z,83.15
2023-01-29T14:41:07.580Z,82.72
2023-01-29T14:44:46.801Z,82.00
2023-01-29T14:47:48.323Z,82.46
2023-01-29T14:50:53.453Z,82.98
2023-01-29T14:54:13.144Z,83.26
2023-01-29T14:57:17.940Z,84.04
2023-01-29T15:00:30.262Z,83.27
2023-01-29T15:03:45.848Z,84.24
2023-01-29T15:06:53.057Z,84.09
2023-01-29T15:10:22.757Z,83.69
2023-01-29T15:13:35.808Z,84.09
2023-01-29T15:17:06.813Z,84.04
2023-01-29T15:20:28.635Z,84.26
2023-01-29T15:23:32.520Z,83.56
2023-01-29T15:26:35.894Z,83.40
2023-01-29T15:29:38.330Z,83.66
2023-01-29T15:32:40.334Z,83.93
2023-01-29T15:35:42.535Z,83.52
2023-01-29T15:38:44.121Z,83.67
2023-01-29T15:41:46.203Z,83.92
2023-01-29T15:44:48.085Z,83.94
2023-01-29T15:47:50.570Z,84.00
2023-01-29T15:50:54.638Z,83.82
2023-01-29T15:54:15.929Z,84.05
2023-01-29T15:57:24.601Z,83.47
2023-01-29T16:00:29.421Z,84.04
2023-01-29T16:03:33.363Z,84.16
2023-01-29T16:06:40.213Z,84.76
2023-01-29T16:09:43.102Z,84.39
2023-01-29T16:12:51.160Z,84.84
2023-01-29T16:16:01.539Z,84.22
2023-01-29T16:19:19.835Z,83.79
2023-01-29T16:22:21.411Z,84.16
2023-01-29T16:25:23.535Z,84.83
2023-01-29T16:28:25.191Z,84.14
2023-01-29T16:31:29.103Z,83.64
2023-01-29T16:35:00.227Z,83.91
2023-01-29T16:38:16.158Z,83.61
2023-01-29T16:41:26.603Z,84.95
2023-01-29T16:44:28.085Z,84.97
2023-01-29T16:47:32.436Z,84.82
2023-01-29T16:50:46.305Z,84.58
2023-01-29T16:54:18.466Z,84.75
2023-01-29T16:57:24.791Z,84.27
2023-01-29T17:00:29.643Z,84.65
2023-01-29T17:03:34.053Z,84.89
2023-01-29T17:06:36.221Z,85.05
2023-01-29T17:09:38.297Z,85.05
2023-01-29T17:12:39.868Z,84.39
2023-01-29T17:15:43.033Z,84.68
2023-01-29T17:18:44.590Z,84.50
2023-01-29T17:21:49.360Z,84.58
2023-01-29T17:24:51.580Z,84.79
2023-01-29T17:28:18.986Z,84.97
2023-01-29T17:31:21.007Z,84.83
2023-01-29T17:34:26.718Z,84.86
2023-01-29T17:37:29.493Z,85.14
2023-01-29T17:40:40.534Z,85.02
2023-01-29T17:43:44.251Z,84.86
2023-01-29T17:46:47.648Z,85.30
2023-01-29T17:49:57.807Z,84.94
2023-01-29T17:53:11.856Z,85.48
2023-01-29T17:56:46.529Z,85.77
2023-01-29T17:59:48.893Z,85.57
2023-01-29T18:08:03.478Z,85.13
2023-01-29T18:14:24.602Z,85.63
2023-01-29T18:17:34.766Z,86.00
2023-01-29T18:20:48.010Z,85.59
2023-01-29T18:23:50.263Z,85.50
2023-01-29T18:27:25.726Z,85.67
2023-01-29T18:30:28.497Z,85.82
2023-01-29T18:34:59.452Z,85.51
2023-01-29T18:38:59.994Z,85.79
2023-01-29T18:42:01.855Z,85.64
2023-01-29T18:45:04.033Z,85.39
2023-01-29T18:51:41.917Z,85.71
2023-01-29T18:54:52.127Z,85.11
2023-01-29T18:58:25.148Z,85.58
2023-01-29T19:01:39.259Z,85.80
2023-01-29T19:04:42.279Z,85.81
2023-01-29T19:07:44.325Z,85.90
2023-01-29T19:10:46.289Z,85.66
2023-01-29T19:13:49.942Z,85.86
2023-01-29T19:16:51.964Z,85.93
2023-01-29T19:19:58.935Z,86.12
2023-01-29T19:23:00.844Z,85.98
2023-01-29T19:26:02.833Z,86.33
2023-01-29T19:29:04.747Z,85.75
2023-01-29T19:32:06.810Z,85.92
2023-01-29T19:35:09.051Z,86.19
2023-01-29T19:38:12.377Z,86.20
2023-01-29T19:41:14.246Z,86.25
2023-01-29T19:44:16.143Z,86.08
2023-01-29T19:47:17.920Z,85.84
2023-01-29T19:50:20.694Z,86.29
2023-01-29T19:53:23.211Z,86.26
2023-01-29T19:56:26.352Z,86.60
2023-01-29T19:59:28.119Z,86.95
2023-01-29T20:02:33.941Z,86.57
2023-01-29T20:05:37.591Z,86.46
2023-01-29T20:08:39.453Z,86.59
2023-01-29T20:11:41.232Z,87.22
2023-01-29T20:14:48.879Z,86.96
2023-01-29T20:17:53.653Z,87.16
2023-01-29T20:21:06.190Z,86.49
2023-01-29T20:24:12.367Z,87.17
2023-01-29T20:27:23.396Z,86.97
2023-01-29T20:30:28.977Z,86.47
2023-01-29T20:33:31.218Z,87.07
2023-01-29T20:36:33.174Z,87.01
2023-01-29T20:39:34.976Z,86.98
2023-01-29T20:42:37.052Z,87.19
2023-01-29T20:45:42.282Z,87.50
2023-01-29T20:48:44.377Z,87.20
2023-01-29T20:51:46.380Z,86.87
2023-01-29T20:54:48.147Z,87.65
2023-01-29T20:58:05.547Z,87.62
2023-01-29T21:01:13.165Z,87.43
2023-01-29T21:04:16.800Z,87.73
2023-01-29T21:07:18.860Z,87.64
2023-01-29T21:10:20.717Z,87.47
2023-01-29T21:13:22.676Z,87.63
2023-01-29T21:16:26.355Z,87.60
2023-01-29T21:19:31.315Z,87.68
2023-01-29T21:22:33.583Z,87.46
2023-01-29T21:25:36.204Z,87.75
2023-01-29T21:28:38.049Z,87.45
2023-01-29T21:31:40.884Z,87.08
2023-01-29T21:34:42.722Z,87.33
2023-01-29T21:37:44.538Z,87.12
2023-01-29T21:40:50.358Z,87.35
2023-01-29T21:43:56.053Z,87.20
2023-01-29T21:46:59.670Z,87.07
2023-01-29T21:50:01.744Z,87.25
2023-01-29T21:53:06.830Z,87.22
2023-01-29T21:56:10.068Z,87.37
2023-01-29T21:59:12.344Z,87.31
2023-01-29T22:02:15.277Z,87.56
2023-01-29T22:05:19.772Z,87.79
2023-01-29T22:08:30.829Z,87.73
2023-01-29T22:11:38.178Z,87.82
2023-01-29T22:14:43.699Z,88.36
2023-01-29T22:17:48.195Z,88.20
2023-01-29T22:21:02.778Z,88.01
2023-01-29T22:24:05.337Z,88.41
2023-01-29T22:27:16.664Z,88.30
2023-01-29T22:30:31.031Z,88.65
2023-01-29T22:33:59.783Z,88.42
2023-01-29T22:37:03.206Z,88.78
2023-01-29T22:40:11.629Z,88.16
2023-01-29T22:43:13.977Z,88.32
2023-01-29T22:46:15.985Z,88.89
2023-01-29T22:49:20.149Z,89.14
2023-01-29T22:52:26.209Z,88.80
2023-01-29T22:55:31.249Z,88.72
2023-01-29T22:58:42.633Z,88.58
2023-01-29T23:01:48.384Z,89.11
2023-01-29T23:04:51.240Z,89.21
2023-01-29T23:07:55.595Z,89.01
2023-01-29T23:11:14.196Z,89.17
2023-01-29T23:14:22.293Z,89.31
2023-01-29T23:17:24.346Z,89.41
2023-01-29T23:20:26.936Z,89.16
2023-01-29T23:23:29.933Z,89.11
2023-01-29T23:26:52.901Z,89.58
2023-01-29T23:29:55.051Z,89.72
2023-01-29T23:32:56.936Z,89.54
2023-01-29T23:35:58.870Z,89.30
2023-01-29T23:39:01.585Z,89.21
2023-01-29T23:42:06.382Z,89.32
2023-01-29T23:45:08.788Z,88.99
2023-01-29T23:48:10.900Z,89.46
2023-01-29T23:51:12.707Z,89.59
2023-01-29T23:54:16.858Z,89.10
2023-01-29T23:57:23.626Z,88.85
